createdAt,value
2019-02-24T00:00:05.063Z,21.3
2019-02-24T00:00:55.008Z,21.3
2019-02-24T00:01:44.573Z,21.3
2019-02-24T00:02:35.093Z,21.3
2019-02-24T00:03:25.158Z,21.3
2019-02-24T00:04:15.715Z,21.3
2019-02-24T00:05:05.005Z,21.3
2019-02-24T00:05:55.051Z,21.3
2019-02-24T00:06:45.341Z,21.3
2019-02-24T00:07:35.935Z,21.3
2019-02-24T00:08:25.482Z,21.3
2019-02-24T00:09:16.362Z,21.3
2019-02-24T00:10:05.883Z,21.3
2019-02-24T00:10:56.225Z,21.3
2019-02-24T00:11:46.529Z,21.3
2019-02-24T00:12:36.542Z,21.3
2019-02-24T00:13:26.602Z,21.2
2019-02-24T00:14:15.864Z,21.3
2019-02-24T00:15:06.467Z,21.2
2019-02-24T00:15:56.508Z,21.2
2019-02-24T00:16:46.557Z,21.2
2019-02-24T00:17:36.329Z,21.2
2019-02-24T00:18:26.389Z,21.2
2019-02-24T00:19:16.184Z,21.2
2019-02-24T00:20:06.509Z,21.2
2019-02-24T00:20:57.129Z,21.2
2019-02-24T00:21:46.649Z,21.2
2019-02-24T00:22:36.942Z,21.2
2019-02-24T00:23:27.292Z,21.2
2019-02-24T00:24:16.507Z,21.2
2019-02-24T00:25:06.937Z,21.2
2019-02-24T00:26:46.957Z,21.2
2019-02-24T00:37:38.016Z,21.1
2019-02-24T00:38:27.758Z,21.1
2019-02-24T00:39:17.906Z,21.1
2019-02-24T00:40:08.455Z,21.1
2019-02-24T00:40:57.923Z,21.1
2019-02-24T00:41:48.308Z,21.1
2019-02-24T00:42:38.668Z,21.1
2019-02-24T00:43:27.843Z,21.1
2019-02-24T00:44:18.758Z,21.1
2019-02-24T00:45:07.948Z,21.1
2019-02-24T00:45:58.270Z,21.1
2019-02-24T00:46:48.438Z,21.1
2019-02-24T00:47:38.712Z,21.1
2019-02-24T00:48:29.055Z,21
2019-02-24T00:49:18.816Z,21
2019-02-24T00:50:08.595Z,21
2019-02-24T00:50:59.180Z,21
2019-02-24T00:51:48.435Z,21
2019-02-24T00:52:38.468Z,21
2019-02-24T00:53:28.790Z,21
2019-02-24T00:54:18.645Z,21
2019-02-24T00:55:08.460Z,21
2019-02-24T00:55:59.018Z,21
2019-02-24T00:56:48.738Z,21
2019-02-24T00:57:38.337Z,21
2019-02-24T00:58:28.366Z,21
2019-02-24T00:59:19.002Z,21
2019-02-24T01:00:09.310Z,21
2019-02-24T01:00:58.833Z,20.9
2019-02-24T01:01:49.395Z,20.9
2019-02-24T01:02:39.480Z,20.9
2019-02-24T01:03:28.979Z,20.9
2019-02-24T01:04:19.327Z,20.9
2019-02-24T01:05:09.397Z,20.9
2019-02-24T01:05:59.153Z,20.9
2019-02-24T01:06:49.512Z,20.9
2019-02-24T01:07:39.049Z,20.9
2019-02-24T01:08:29.054Z,20.9
2019-02-24T01:09:19.125Z,20.9
2019-02-24T01:10:09.460Z,20.9
2019-02-24T01:10:59.834Z,20.9
2019-02-24T01:11:49.569Z,20.9
2019-02-24T01:12:39.636Z,20.9
2019-02-24T01:13:29.681Z,20.9
2019-02-24T01:14:19.803Z,20.9
2019-02-24T01:15:10.367Z,20.9
2019-02-24T01:16:00.404Z,20.9
2019-02-24T01:16:50.212Z,20.8
2019-02-24T01:17:40.246Z,20.8
2019-02-24T01:18:30.018Z,20.8
2019-02-24T01:19:19.608Z,20.8
2019-02-24T01:20:10.417Z,20.8
2019-02-24T01:21:00.828Z,20.8
2019-02-24T01:21:50.265Z,20.8
2019-02-24T01:22:40.576Z,20.8
2019-02-24T01:23:30.691Z,20.8
2019-02-24T01:24:20.434Z,20.7
2019-02-24T01:25:11.093Z,20.7
2019-02-24T01:26:00.253Z,20.7
2019-02-24T01:26:51.081Z,20.7
2019-02-24T01:27:41.716Z,20.7
2019-02-24T01:28:32.491Z,20.6
2019-02-24T01:29:21.546Z,20.7
2019-02-24T01:30:11.881Z,20.6
2019-02-24T01:31:00.611Z,20.6
2019-02-24T01:31:50.936Z,20.6
2019-02-24T01:32:42.027Z,20.6
2019-02-24T01:33:31.291Z,20.6
2019-02-24T01:34:21.915Z,20.6
2019-02-24T01:35:11.711Z,20.6
2019-02-24T01:36:01.137Z,20.6
2019-02-24T01:36:52.310Z,20.6
2019-02-24T01:37:41.863Z,20.6
2019-02-24T01:38:31.943Z,20.6
2019-02-24T01:39:21.650Z,20.5
2019-02-24T01:40:12.070Z,20.5
2019-02-24T01:41:02.035Z,20.5
2019-02-24T01:41:51.945Z,20.5
2019-02-24T01:42:42.715Z,20.5
2019-02-24T01:43:32.481Z,20.5
2019-02-24T01:44:21.554Z,20.5
2019-02-24T01:45:12.137Z,20.5
2019-02-24T01:46:02.105Z,20.4
2019-02-24T01:46:52.250Z,20.4
2019-02-24T01:47:41.759Z,20.4
2019-02-24T01:48:32.825Z,20.4
2019-02-24T01:49:22.697Z,20.4
2019-02-24T01:50:12.706Z,20.4
2019-02-24T01:51:03.010Z,20.4
2019-02-24T01:51:52.322Z,20.4
2019-02-24T01:52:42.693Z,20.4
2019-02-24T01:53:33.455Z,20.4
2019-02-24T01:54:23.543Z,20.3
2019-02-24T01:55:12.732Z,20.3
2019-02-24T01:56:02.545Z,20.3
2019-02-24T01:56:52.939Z,20.3
2019-02-24T01:57:43.457Z,20.3
2019-02-24T01:58:42.052Z,20.3
2019-02-24T01:59:23.901Z,20.3
2019-02-24T02:00:13.660Z,20.3
2019-02-24T02:01:03.706Z,20.3
2019-02-24T02:01:53.752Z,20.3
2019-02-24T02:02:43.550Z,20.3
2019-02-24T02:03:33.619Z,20.3
2019-02-24T02:04:23.112Z,20.3
2019-02-24T02:05:13.724Z,20.3
2019-02-24T02:06:03.774Z,20.2
2019-02-24T02:06:53.811Z,20.3
2019-02-24T02:07:44.492Z,20.2
2019-02-24T02:08:34.249Z,20.2
2019-02-24T02:09:24.393Z,20.2
2019-02-24T02:10:14.631Z,20.2
2019-02-24T02:11:03.933Z,20.2
2019-02-24T02:11:53.948Z,20.2
2019-02-24T02:12:44.494Z,20.2
2019-02-24T02:13:34.597Z,20.1
2019-02-24T02:14:24.356Z,20.1
2019-02-24T02:15:14.671Z,20.1
2019-02-24T02:16:05.011Z,20.1
2019-02-24T02:16:55.066Z,20.1
2019-02-24T02:17:44.618Z,20.1
2019-02-24T02:18:34.666Z,20.1
2019-02-24T02:19:25.001Z,20.1
2019-02-24T02:20:14.997Z,20.1
2019-02-24T02:21:05.080Z,20.1
2019-02-24T02:21:55.190Z,20.1
2019-02-24T02:22:45.230Z,20.1
2019-02-24T02:23:34.400Z,20
2019-02-24T02:24:25.033Z,20
2019-02-24T02:25:14.598Z,20
2019-02-24T02:26:04.380Z,20
2019-02-24T02:26:54.517Z,20
2019-02-24T02:27:45.093Z,19.9
2019-02-24T02:28:44.390Z,20
2019-02-24T02:29:24.043Z,19.9
2019-02-24T02:30:15.455Z,19.9
2019-02-24T02:31:06.110Z,19.9
2019-02-24T02:31:55.868Z,19.9
2019-02-24T02:32:45.648Z,19.9
2019-02-24T02:33:35.945Z,19.9
2019-02-24T02:34:25.445Z,19.9
2019-02-24T02:35:16.115Z,19.9
2019-02-24T02:36:05.610Z,19.9
2019-02-24T02:36:56.505Z,19.9
2019-02-24T02:37:45.954Z,19.9
2019-02-24T02:38:35.752Z,19.9
2019-02-24T02:39:26.432Z,19.9
2019-02-24T02:40:16.410Z,19.9
2019-02-24T02:41:06.512Z,19.8
2019-02-24T02:41:56.604Z,19.8
2019-02-24T02:42:46.322Z,19.8
2019-02-24T02:43:36.624Z,19.8
2019-02-24T02:44:26.994Z,19.8
2019-02-24T02:45:16.768Z,19.8
2019-02-24T02:46:06.557Z,19.8
2019-02-24T02:46:57.182Z,19.8
2019-02-24T02:47:46.949Z,19.8
2019-02-24T02:48:37.037Z,19.8
2019-02-24T02:49:26.759Z,19.8
2019-02-24T02:50:17.515Z,19.8
2019-02-24T02:51:07.246Z,19.8
2019-02-24T02:51:56.964Z,19.8
2019-02-24T02:52:47.323Z,19.8
2019-02-24T02:53:37.362Z,19.8
2019-02-24T02:54:26.874Z,19.7
2019-02-24T02:55:16.896Z,19.7
2019-02-24T02:56:07.338Z,19.7
2019-02-24T02:56:57.831Z,19.7
2019-02-24T02:57:47.899Z,19.7
2019-02-24T02:58:36.883Z,19.7
2019-02-24T02:59:28.029Z,19.6
2019-02-24T03:00:17.297Z,19.6
2019-02-24T03:01:07.544Z,19.6
2019-02-24T03:01:57.914Z,19.6
2019-02-24T03:02:47.687Z,19.6
2019-02-24T03:03:36.931Z,19.6
2019-02-24T03:04:27.803Z,19.6
2019-02-24T03:08:00.028Z,19.6
2019-02-24T03:08:50.349Z,19.6
2019-02-24T03:09:40.943Z,19.6
2019-02-24T03:10:30.648Z,19.6
2019-02-24T03:11:21.342Z,19.6
2019-02-24T03:12:10.868Z,19.6
2019-02-24T03:13:01.190Z,19.5
2019-02-24T03:13:50.630Z,19.6
2019-02-24T03:14:41.013Z,19.6
2019-02-24T03:15:30.188Z,19.5
2019-02-24T03:16:24.053Z,19.5
2019-02-24T03:17:11.205Z,19.5
2019-02-24T03:18:01.763Z,19.5
2019-02-24T03:18:51.587Z,19.5
2019-02-24T03:19:41.053Z,19.5
2019-02-24T03:20:31.375Z,19.4
2019-02-24T03:21:21.840Z,19.4
2019-02-24T03:22:11.769Z,19.4
2019-02-24T03:23:00.994Z,19.4
2019-02-24T03:23:51.927Z,19.4
2019-02-24T03:24:41.220Z,19.4
2019-02-24T03:25:32.054Z,19.4
2019-02-24T03:26:21.830Z,19.4
2019-02-24T03:27:11.865Z,19.4
2019-02-24T03:28:01.685Z,19.4
2019-02-24T03:28:51.707Z,19.4
2019-02-24T03:29:41.810Z,19.4
2019-02-24T03:30:31.976Z,19.4
2019-02-24T03:31:22.103Z,19.4
2019-02-24T03:32:12.307Z,19.4
2019-02-24T03:33:02.398Z,19.4
2019-02-24T03:33:53.070Z,19.4
2019-02-24T03:34:42.884Z,19.4
2019-02-24T03:35:32.152Z,19.4
2019-02-24T03:36:22.530Z,19.4
2019-02-24T03:37:12.536Z,19.3
2019-02-24T03:38:02.571Z,19.4
2019-02-24T03:38:52.902Z,19.3
2019-02-24T03:39:43.234Z,19.3
2019-02-24T03:40:32.461Z,19.3
2019-02-24T03:41:23.014Z,19.3
2019-02-24T03:42:13.397Z,19.3
2019-02-24T03:43:02.911Z,19.3
2019-02-24T03:43:53.372Z,19.3
2019-02-24T03:44:43.004Z,19.3
2019-02-24T03:45:33.374Z,19.3
2019-02-24T03:46:23.148Z,19.3
2019-02-24T03:47:13.178Z,19.3
2019-02-24T03:48:03.521Z,19.3
2019-02-24T03:48:53.872Z,19.3
2019-02-24T03:49:43.898Z,19.3
2019-02-24T03:50:32.887Z,19.3
2019-02-24T03:51:23.477Z,19.3
2019-02-24T03:52:13.807Z,19.3
2019-02-24T03:53:03.723Z,19.3
2019-02-24T03:53:53.918Z,19.3
2019-02-24T03:54:44.031Z,19.3
2019-02-24T03:55:34.015Z,19.2
2019-02-24T03:56:24.390Z,19.2
2019-02-24T03:57:13.898Z,19.2
2019-02-24T03:58:03.985Z,19.2
2019-02-24T03:58:53.978Z,19.2
2019-02-24T03:59:44.328Z,19.2
2019-02-24T04:00:34.114Z,19.2
2019-02-24T04:01:24.460Z,19.2
2019-02-24T04:02:14.758Z,19.2
2019-02-24T04:03:04.306Z,19.2
2019-02-24T04:03:54.636Z,19.2
2019-02-24T04:04:44.359Z,19.1
2019-02-24T04:05:34.728Z,19.1
2019-02-24T04:06:24.829Z,19.2
2019-02-24T04:07:14.812Z,19.1
2019-02-24T04:08:04.354Z,19.1
2019-02-24T04:08:55.010Z,19.1
2019-02-24T04:09:45.342Z,19.1
2019-02-24T04:10:34.217Z,19.1
2019-02-24T04:11:24.819Z,19.1
2019-02-24T04:12:14.870Z,19.1
2019-02-24T04:13:04.992Z,19.1
2019-02-24T04:13:54.542Z,19.1
2019-02-24T04:14:45.098Z,19.1
2019-02-24T04:15:35.122Z,19.1
2019-02-24T04:16:24.592Z,19.1
2019-02-24T04:17:14.937Z,19.1
2019-02-24T04:18:05.590Z,19.1
2019-02-24T04:18:54.977Z,19.1
2019-02-24T04:19:45.413Z,19.1
2019-02-24T04:20:35.755Z,19.1
2019-02-24T04:21:25.812Z,19.1
2019-02-24T04:22:16.144Z,19.1
2019-02-24T04:23:04.805Z,19.1
2019-02-24T04:23:55.970Z,19.1
2019-02-24T04:24:46.000Z,19.1
2019-02-24T04:25:35.547Z,19
2019-02-24T04:26:25.894Z,19
2019-02-24T04:27:18.266Z,19
2019-02-24T04:28:06.252Z,19
2019-02-24T04:28:56.552Z,19
2019-02-24T04:29:46.101Z,19
2019-02-24T04:30:35.424Z,19
2019-02-24T04:31:26.825Z,19
2019-02-24T04:32:16.529Z,19
2019-02-24T04:33:06.851Z,19
2019-02-24T04:33:56.646Z,19
2019-02-24T04:34:46.407Z,18.9
2019-02-24T04:35:36.582Z,19
2019-02-24T04:36:26.829Z,18.9
2019-02-24T04:37:16.582Z,18.9
2019-02-24T04:38:06.648Z,18.9
2019-02-24T04:38:56.416Z,18.9
2019-02-24T04:39:45.933Z,18.9
2019-02-24T04:40:37.097Z,18.9
2019-02-24T04:41:26.971Z,18.9
2019-02-24T04:42:17.222Z,18.9
2019-02-24T04:43:07.506Z,18.9
2019-02-24T04:43:57.617Z,18.9
2019-02-24T04:44:47.382Z,18.9
2019-02-24T04:45:37.411Z,18.9
2019-02-24T04:46:26.143Z,18.9
2019-02-24T04:47:17.843Z,18.9
2019-02-24T04:48:06.588Z,18.9
2019-02-24T04:48:57.195Z,18.9
2019-02-24T04:49:47.235Z,18.9
2019-02-24T04:50:37.114Z,18.9
2019-02-24T04:51:27.060Z,18.9
2019-02-24T04:52:17.114Z,18.9
2019-02-24T04:53:07.523Z,18.9
2019-02-24T04:53:56.678Z,18.9
2019-02-24T04:54:47.350Z,18.9
2019-02-24T04:55:38.390Z,18.9
2019-02-24T04:56:27.957Z,18.8
2019-02-24T04:57:18.240Z,18.8
2019-02-24T04:58:08.019Z,18.8
2019-02-24T04:58:58.074Z,18.8
2019-02-24T04:59:48.385Z,18.8
2019-02-24T05:00:38.725Z,18.8
2019-02-24T05:01:28.775Z,18.8
2019-02-24T05:02:18.558Z,18.8
2019-02-24T05:03:08.641Z,18.8
2019-02-24T05:03:58.415Z,18.8
2019-02-24T05:04:48.210Z,18.8
2019-02-24T05:05:38.577Z,18.8
2019-02-24T05:06:28.099Z,18.8
2019-02-24T05:07:18.442Z,18.8
2019-02-24T05:08:08.490Z,18.8
2019-02-24T05:08:58.576Z,18.8
2019-02-24T05:09:48.319Z,18.8
2019-02-24T05:10:38.398Z,18.8
2019-02-24T05:11:28.452Z,18.8
2019-02-24T05:18:08.840Z,18.6
2019-02-24T05:18:59.485Z,18.6
2019-02-24T05:19:50.037Z,18.6
2019-02-24T05:20:40.073Z,18.6
2019-02-24T05:21:30.160Z,18.6
2019-02-24T05:22:19.954Z,18.6
2019-02-24T05:23:09.727Z,18.6
2019-02-24T05:24:00.048Z,18.6
2019-02-24T05:24:49.837Z,18.6
2019-02-24T05:25:39.957Z,18.6
2019-02-24T05:26:29.962Z,18.6
2019-02-24T05:27:19.712Z,18.6
2019-02-24T05:28:10.326Z,18.6
2019-02-24T05:29:00.449Z,18.6
2019-02-24T05:29:53.302Z,18.6
2019-02-24T05:30:40.250Z,18.6
2019-02-24T05:31:30.834Z,18.6
2019-02-24T05:32:20.083Z,18.6
2019-02-24T05:33:10.392Z,18.6
2019-02-24T05:34:00.455Z,18.6
2019-02-24T05:34:51.156Z,18.6
2019-02-24T05:35:40.844Z,18.5
2019-02-24T05:36:33.382Z,18.6
2019-02-24T05:37:20.973Z,18.6
2019-02-24T05:38:10.759Z,18.6
2019-02-24T05:39:01.125Z,18.5
2019-02-24T05:39:51.406Z,18.6
2019-02-24T05:40:40.874Z,18.5
2019-02-24T05:41:31.241Z,18.6
2019-02-24T05:42:21.569Z,18.6
2019-02-24T05:43:11.652Z,18.6
2019-02-24T05:44:01.135Z,18.6
2019-02-24T05:44:51.769Z,18.6
2019-02-24T05:46:31.302Z,18.8
2019-02-24T05:47:21.150Z,18.9
2019-02-24T05:48:11.994Z,19
2019-02-24T05:49:01.747Z,19.1
2019-02-24T05:49:51.534Z,19.2
2019-02-24T05:50:41.566Z,19.2
2019-02-24T05:51:31.407Z,19.2
2019-02-24T05:52:21.696Z,19.2
2019-02-24T05:53:10.977Z,19.2
2019-02-24T05:54:01.289Z,19.1
2019-02-24T05:54:54.040Z,19.1
2019-02-24T05:55:42.174Z,19.1
2019-02-24T05:56:32.543Z,19.1
2019-02-24T05:57:22.063Z,19.1
2019-02-24T05:58:12.216Z,19.1
2019-02-24T05:59:02.411Z,19.1
2019-02-24T06:00:02.512Z,19.1
2019-02-24T06:00:42.251Z,19
2019-02-24T06:01:32.882Z,19
2019-02-24T06:02:22.631Z,18.9
2019-02-24T06:03:12.195Z,18.9
2019-02-24T06:04:01.936Z,18.9
2019-02-24T06:06:00.644Z,18.9
2019-02-24T06:06:49.368Z,18.9
2019-02-24T06:07:40.744Z,18.9
2019-02-24T06:08:30.770Z,18.9
2019-02-24T06:09:20.569Z,18.9
2019-02-24T06:10:10.595Z,18.9
2019-02-24T06:11:00.963Z,18.9
2019-02-24T06:11:50.762Z,18.9
2019-02-24T06:12:41.322Z,18.8
2019-02-24T06:13:30.558Z,18.8
2019-02-24T06:14:20.336Z,18.8
2019-02-24T06:15:10.502Z,18.8
2019-02-24T06:16:00.473Z,18.8
2019-02-24T06:16:50.520Z,18.8
2019-02-24T06:17:41.391Z,18.8
2019-02-24T06:18:30.718Z,18.8
2019-02-24T06:19:20.731Z,18.8
2019-02-24T06:20:11.344Z,18.8
2019-02-24T06:21:01.124Z,18.8
2019-02-24T06:21:51.110Z,18.8
2019-02-24T06:22:40.382Z,18.8
2019-02-24T06:23:32.081Z,18.8
2019-02-24T06:24:21.294Z,18.8
2019-02-24T06:25:11.331Z,18.8
2019-02-24T06:26:02.210Z,18.8
2019-02-24T06:26:52.070Z,18.8
2019-02-24T06:27:42.060Z,18.8
2019-02-24T06:28:32.469Z,18.8
2019-02-24T06:29:21.639Z,18.8
2019-02-24T06:30:12.846Z,18.8
2019-02-24T06:31:02.298Z,18.8
2019-02-24T06:31:51.279Z,18.8
2019-02-24T06:32:42.156Z,18.8
2019-02-24T06:33:32.741Z,18.8
2019-02-24T06:34:21.697Z,18.8
2019-02-24T06:35:12.309Z,18.8
2019-02-24T06:36:01.570Z,18.8
2019-02-24T06:36:52.424Z,18.9
2019-02-24T06:37:42.476Z,18.9
2019-02-24T06:38:33.054Z,18.8
2019-02-24T06:39:22.329Z,18.9
2019-02-24T06:40:12.159Z,18.8
2019-02-24T06:41:04.377Z,18.8
2019-02-24T06:41:53.026Z,18.8
2019-02-24T06:42:42.810Z,18.9
2019-02-24T06:43:31.549Z,18.8
2019-02-24T06:44:23.219Z,18.9
2019-02-24T06:45:12.425Z,18.9
2019-02-24T06:46:02.178Z,18.9
2019-02-24T06:46:52.823Z,18.9
2019-02-24T06:47:43.527Z,18.9
2019-02-24T06:48:33.517Z,18.9
2019-02-24T06:49:22.508Z,18.9
2019-02-24T06:50:13.363Z,18.9
2019-02-24T06:51:03.132Z,18.9
2019-02-24T06:51:53.479Z,18.9
2019-02-24T06:52:43.991Z,18.9
2019-02-24T06:53:33.069Z,18.9
2019-02-24T06:54:23.310Z,18.9
2019-02-24T06:55:13.158Z,18.9
2019-02-24T06:56:03.458Z,18.8
2019-02-24T06:56:53.473Z,18.8
2019-02-24T06:57:43.843Z,18.8
2019-02-24T06:58:33.124Z,18.8
2019-02-24T06:59:22.655Z,18.8
2019-02-24T07:00:20.793Z,18.8
2019-02-24T07:01:03.623Z,18.8
2019-02-24T07:01:52.505Z,18.8
2019-02-24T07:02:43.942Z,18.8
2019-02-24T07:03:33.530Z,18.8
2019-02-24T07:16:50.814Z,18.8
2019-02-24T07:17:41.407Z,18.8
2019-02-24T07:18:30.951Z,18.8
2019-02-24T07:19:20.172Z,18.9
2019-02-24T07:20:11.832Z,18.9
2019-02-24T07:21:01.664Z,19
2019-02-24T07:21:51.672Z,19.1
2019-02-24T07:22:41.139Z,19.1
2019-02-24T07:23:32.041Z,19.1
2019-02-24T07:24:21.866Z,19.1
2019-02-24T07:25:11.413Z,19.2
2019-02-24T07:26:01.661Z,19.2
2019-02-24T07:26:51.996Z,19.2
2019-02-24T07:27:41.779Z,19.1
2019-02-24T07:28:31.788Z,19.1
2019-02-24T07:29:22.436Z,19.1
2019-02-24T07:30:11.674Z,19
2019-02-24T07:31:02.611Z,19
2019-02-24T07:31:52.063Z,19
2019-02-24T07:32:42.414Z,18.9
2019-02-24T07:33:32.758Z,18.9
2019-02-24T07:34:22.294Z,19
2019-02-24T07:35:12.866Z,19.1
2019-02-24T07:36:02.656Z,19.1
2019-02-24T07:36:52.761Z,19.1
2019-02-24T07:37:42.217Z,19.1
2019-02-24T07:38:33.063Z,19.2
2019-02-24T07:39:23.138Z,19.2
2019-02-24T07:40:13.183Z,19.2
2019-02-24T07:41:02.698Z,19.2
2019-02-24T07:41:52.713Z,19.3
2019-02-24T07:42:43.346Z,19.3
2019-02-24T07:43:32.425Z,19.3
2019-02-24T07:44:22.705Z,19.3
2019-02-24T07:45:13.242Z,19.3
2019-02-24T07:46:02.230Z,19.3
2019-02-24T07:46:52.032Z,19.3
2019-02-24T07:47:43.123Z,19.3
2019-02-24T07:48:32.927Z,19.2
2019-02-24T07:49:23.275Z,19.3
2019-02-24T07:50:13.100Z,19.3
2019-02-24T07:51:02.825Z,19.3
2019-02-24T07:51:53.995Z,19.3
2019-02-24T07:52:43.249Z,19.3
2019-02-24T07:53:33.779Z,19.4
2019-02-24T07:54:24.124Z,19.4
2019-02-24T07:55:13.898Z,19.4
2019-02-24T07:56:02.919Z,19.4
2019-02-24T07:56:53.764Z,19.4
2019-02-24T07:57:43.927Z,19.4
2019-02-24T07:58:33.912Z,19.5
2019-02-24T07:59:23.989Z,19.5
2019-02-24T08:00:13.207Z,19.5
2019-02-24T08:01:03.830Z,19.4
2019-02-24T08:01:53.667Z,19.4
2019-02-24T08:02:43.739Z,19.5
2019-02-24T08:03:34.002Z,19.5
2019-02-24T08:04:24.307Z,19.5
2019-02-24T08:05:29.042Z,19.6
2019-02-24T08:06:04.431Z,19.6
2019-02-24T08:06:55.022Z,19.7
2019-02-24T08:07:44.745Z,19.8
2019-02-24T08:08:34.536Z,19.8
2019-02-24T08:09:24.373Z,19.8
2019-02-24T08:10:14.915Z,19.8
2019-02-24T08:11:04.959Z,19.8
2019-02-24T08:11:55.047Z,19.8
2019-02-24T08:12:45.087Z,19.8
2019-02-24T08:13:35.129Z,19.8
2019-02-24T08:14:25.211Z,19.8
2019-02-24T08:15:15.575Z,19.8
2019-02-24T08:16:05.596Z,19.8
2019-02-24T08:16:55.157Z,19.8
2019-02-24T08:17:45.200Z,19.8
2019-02-24T08:18:35.513Z,19.9
2019-02-24T08:19:25.561Z,19.9
2019-02-24T08:20:15.629Z,19.9
2019-02-24T08:21:07.197Z,19.9
2019-02-24T08:21:55.726Z,19.9
2019-02-24T08:22:46.028Z,19.9
2019-02-24T08:23:35.641Z,19.9
2019-02-24T08:24:25.881Z,19.9
2019-02-24T08:25:15.638Z,19.9
2019-02-24T08:26:06.260Z,19.9
2019-02-24T08:26:56.338Z,19.9
2019-02-24T08:27:46.375Z,19.9
2019-02-24T08:28:35.921Z,19.9
2019-02-24T08:29:25.718Z,20
2019-02-24T08:30:16.568Z,19.9
2019-02-24T08:31:06.353Z,19.9
2019-02-24T08:31:56.085Z,20
2019-02-24T08:32:46.475Z,20
2019-02-24T08:33:36.765Z,20.1
2019-02-24T08:34:26.279Z,20.1
2019-02-24T08:35:16.397Z,20.1
2019-02-24T08:36:06.695Z,20.1
2019-02-24T08:36:56.552Z,20.1
2019-02-24T08:37:46.503Z,20.1
2019-02-24T08:38:36.820Z,20.1
2019-02-24T08:39:26.959Z,20.1
2019-02-24T08:40:16.805Z,20.1
2019-02-24T08:41:06.782Z,20.1
2019-02-24T08:41:56.777Z,20.1
2019-02-24T08:42:47.385Z,20.2
2019-02-24T08:43:36.882Z,20.2
2019-02-24T08:44:29.557Z,20.2
2019-02-24T08:45:16.760Z,20.2
2019-02-24T08:46:07.122Z,20.2
2019-02-24T08:46:56.913Z,20.2
2019-02-24T08:47:46.814Z,20.3
2019-02-24T08:48:36.542Z,20.2
2019-02-24T08:49:27.359Z,20.2
2019-02-24T08:50:17.619Z,20.3
2019-02-24T08:51:08.004Z,20.3
2019-02-24T08:51:58.110Z,20.3
2019-02-24T08:52:48.087Z,20.3
2019-02-24T08:53:37.899Z,20.3
2019-02-24T08:54:28.196Z,20.3
2019-02-24T08:55:18.037Z,20.3
2019-02-24T08:56:07.869Z,20.3
2019-02-24T08:57:00.267Z,20.3
2019-02-24T08:57:48.134Z,20.2
2019-02-24T08:58:38.526Z,20.3
2019-02-24T08:59:28.554Z,20.3
2019-02-24T09:00:18.371Z,20.3
2019-02-24T09:01:08.386Z,20.3
2019-02-24T09:01:58.739Z,20.3
2019-02-24T09:02:48.309Z,20.3
2019-02-24T09:03:37.521Z,20.2
2019-02-24T09:04:28.610Z,20.2
2019-02-24T09:05:17.406Z,20.2
2019-02-24T09:06:08.986Z,20.2
2019-02-24T09:06:58.811Z,20.1
2019-02-24T09:07:49.124Z,20.1
2019-02-24T09:08:38.114Z,20.1
2019-02-24T09:09:28.653Z,20.1
2019-02-24T09:10:19.268Z,20.1
2019-02-24T09:11:09.361Z,20
2019-02-24T09:11:58.625Z,19.9
2019-02-24T09:12:48.898Z,19.9
2019-02-24T09:13:39.270Z,19.9
2019-02-24T09:14:29.588Z,19.9
2019-02-24T09:15:19.183Z,19.9
2019-02-24T09:16:09.787Z,19.9
2019-02-24T09:16:59.458Z,19.9
2019-02-24T09:17:49.606Z,19.8
2019-02-24T09:18:39.861Z,19.8
2019-02-24T09:19:29.686Z,19.8
2019-02-24T09:20:19.813Z,19.8
2019-02-24T09:21:09.520Z,19.7
2019-02-24T09:21:59.855Z,19.7
2019-02-24T09:22:49.885Z,19.7
2019-02-24T09:23:39.620Z,19.8
2019-02-24T09:24:28.907Z,19.8
2019-02-24T09:25:19.295Z,19.9
2019-02-24T09:26:10.093Z,19.9
2019-02-24T09:27:00.136Z,19.9
2019-02-24T09:27:50.462Z,19.9
2019-02-24T09:28:39.949Z,20
2019-02-24T09:29:29.330Z,20
2019-02-24T09:30:19.867Z,20
2019-02-24T09:31:09.683Z,20
2019-02-24T09:31:59.683Z,20
2019-02-24T09:32:49.952Z,20
2019-02-24T09:33:40.922Z,20
2019-02-24T09:34:30.950Z,20
2019-02-24T09:35:19.728Z,20
2019-02-24T09:36:10.457Z,20
2019-02-24T09:37:00.523Z,20
2019-02-24T09:37:50.852Z,20
2019-02-24T09:38:40.980Z,20.1
2019-02-24T09:39:30.957Z,20.1
2019-02-24T09:40:20.744Z,20.1
2019-02-24T09:41:10.814Z,20.1
2019-02-24T09:42:00.974Z,20.1
2019-02-24T09:42:50.921Z,20.1
2019-02-24T09:43:41.530Z,20.1
2019-02-24T09:44:30.840Z,20.1
2019-02-24T09:45:21.647Z,20.1
2019-02-24T09:46:11.752Z,20.2
2019-02-24T09:47:01.756Z,20.2
2019-02-24T09:47:53.909Z,20.2
2019-02-24T09:48:41.896Z,20.2
2019-02-24T09:49:31.768Z,20.2
2019-02-24T09:50:21.976Z,20.2
2019-02-24T09:51:11.769Z,20.2
2019-02-24T09:52:01.827Z,20.2
2019-02-24T09:52:51.338Z,20.2
2019-02-24T09:53:42.208Z,20.2
2019-02-24T09:54:32.254Z,20.3
2019-02-24T09:55:22.335Z,20.3
2019-02-24T09:56:12.366Z,20.3
2019-02-24T09:57:02.146Z,20.3
2019-02-24T09:57:52.243Z,20.3
2019-02-24T09:58:42.556Z,20.3
2019-02-24T09:59:32.053Z,20.3
2019-02-24T10:00:24.854Z,20.3
2019-02-24T10:01:18.244Z,20.3
2019-02-24T10:02:02.763Z,20.3
2019-02-24T10:02:52.528Z,20.3
2019-02-24T10:03:42.330Z,20.3
2019-02-24T10:04:32.672Z,20.3
2019-02-24T10:07:00.488Z,20.4
2019-02-24T10:07:50.204Z,20.4
2019-02-24T10:08:40.813Z,20.4
2019-02-24T10:09:30.588Z,20.5
2019-02-24T10:10:20.658Z,20.6
2019-02-24T10:11:10.707Z,20.6
2019-02-24T10:12:00.839Z,20.6
2019-02-24T10:12:51.220Z,20.7
2019-02-24T10:13:41.000Z,20.8
2019-02-24T10:14:30.998Z,20.8
2019-02-24T10:15:21.345Z,20.9
2019-02-24T10:16:11.320Z,20.9
2019-02-24T10:17:00.617Z,20.9
2019-02-24T10:17:50.945Z,20.8
2019-02-24T10:18:40.955Z,20.8
2019-02-24T10:19:32.725Z,20.8
2019-02-24T10:20:21.624Z,20.7
2019-02-24T10:21:10.968Z,20.7
2019-02-24T10:22:01.444Z,20.6
2019-02-24T10:22:51.790Z,20.6
2019-02-24T10:23:41.302Z,20.6
2019-02-24T10:24:31.644Z,20.5
2019-02-24T10:25:21.963Z,20.4
2019-02-24T10:26:11.164Z,20.4
2019-02-24T10:27:02.063Z,20.4
2019-02-24T10:27:52.121Z,20.4
2019-02-24T10:28:42.175Z,20.3
2019-02-24T10:29:31.964Z,20.3
2019-02-24T10:30:22.309Z,20.3
2019-02-24T10:31:21.289Z,20.2
2019-02-24T10:32:01.669Z,20.2
2019-02-24T10:32:52.259Z,20.2
2019-02-24T10:33:41.959Z,20.1
2019-02-24T10:34:32.011Z,20.1
2019-02-24T10:35:21.542Z,20.1
2019-02-24T10:36:12.461Z,20.1
2019-02-24T10:37:02.739Z,20.1
2019-02-24T10:37:52.530Z,20.1
2019-02-24T10:38:42.564Z,20.1
2019-02-24T10:39:36.854Z,20.1
2019-02-24T10:40:22.458Z,20
2019-02-24T10:41:12.481Z,20
2019-02-24T10:42:03.134Z,20
2019-02-24T10:42:52.585Z,19.9
2019-02-24T10:43:42.931Z,19.9
2019-02-24T10:44:33.018Z,19.9
2019-02-24T10:45:23.048Z,19.9
2019-02-24T10:46:15.249Z,19.9
2019-02-24T10:47:05.743Z,19.9
2019-02-24T10:47:52.314Z,19.9
2019-02-24T10:48:43.336Z,19.9
2019-02-24T10:49:33.613Z,19.9
2019-02-24T10:50:23.386Z,19.9
2019-02-24T10:51:12.898Z,19.9
2019-02-24T10:52:03.003Z,19.8
2019-02-24T10:52:53.900Z,19.8
2019-02-24T10:53:43.883Z,19.8
2019-02-24T10:54:33.698Z,19.8
2019-02-24T10:55:24.036Z,19.8
2019-02-24T10:56:13.780Z,19.8
2019-02-24T10:57:03.541Z,19.8
2019-02-24T10:57:53.907Z,19.8
2019-02-24T10:58:43.971Z,19.8
2019-02-24T10:59:34.271Z,19.8
2019-02-24T11:00:23.991Z,19.8
2019-02-24T11:01:14.125Z,19.8
2019-02-24T11:02:03.950Z,19.8
2019-02-24T11:02:54.230Z,19.8
2019-02-24T11:03:44.290Z,19.8
2019-02-24T11:04:34.372Z,19.8
2019-02-24T11:05:24.467Z,19.8
2019-02-24T11:06:14.172Z,19.8
2019-02-24T11:07:04.273Z,19.8
2019-02-24T11:07:54.590Z,19.8
2019-02-24T11:08:44.677Z,19.7
2019-02-24T11:09:34.659Z,19.7
2019-02-24T11:10:25.001Z,19.7
2019-02-24T11:11:14.807Z,19.7
2019-02-24T11:12:05.133Z,19.7
2019-02-24T11:12:54.892Z,19.7
2019-02-24T11:13:44.947Z,19.8
2019-02-24T11:14:35.016Z,19.7
2019-02-24T11:15:23.872Z,19.7
2019-02-24T11:16:14.421Z,19.6
2019-02-24T11:17:18.777Z,19.6
2019-02-24T11:17:55.246Z,19.6
2019-02-24T11:18:45.094Z,19.6
2019-02-24T11:19:35.627Z,19.6
2019-02-24T11:20:25.487Z,19.6
2019-02-24T11:21:15.507Z,19.6
2019-02-24T11:22:05.321Z,19.6
2019-02-24T11:23:09.701Z,19.6
2019-02-24T11:23:45.642Z,19.6
2019-02-24T11:24:35.149Z,19.6
2019-02-24T11:25:27.352Z,19.6
2019-02-24T11:26:15.803Z,19.6
2019-02-24T11:27:05.383Z,19.6
2019-02-24T11:27:55.703Z,19.6
2019-02-24T11:28:45.704Z,19.6
2019-02-24T11:29:35.886Z,19.6
2019-02-24T11:30:25.846Z,19.6
2019-02-24T11:31:16.046Z,19.6
2019-02-24T11:32:05.768Z,19.6
2019-02-24T11:32:56.632Z,19.6
2019-02-24T11:33:46.413Z,19.6
2019-02-24T11:34:36.439Z,19.6
2019-02-24T11:35:26.728Z,19.5
2019-02-24T11:36:16.828Z,19.5
2019-02-24T11:37:06.608Z,19.5
2019-02-24T11:37:56.934Z,19.5
2019-02-24T11:38:46.961Z,19.5
2019-02-24T11:39:36.730Z,19.5
2019-02-24T11:40:26.783Z,19.5
2019-02-24T11:41:16.026Z,19.5
2019-02-24T11:42:06.170Z,19.5
2019-02-24T11:42:56.967Z,19.4
2019-02-24T11:43:47.313Z,19.4
2019-02-24T11:44:37.353Z,19.5